Southern Ontario METAR Reports

CYSN - St.Catharines
Updated: 06/04/2020 8:00pm
Mostly cloudy
Mostly cloudy
 Wind from SSW
Wind: SSW 19 km/h, Gust: 30 km/h
Temperature: 24°C
Dew Point: 19°C
Humidity: 74%
Barometer: 1008.1 hPa
Clouds: Mostly cloudy
Visibility: 24 km
Cloud details: Few Clouds 3658 m
Mostly cloudy 6096 m
2020/06/05 00:00 CYSN 050000Z 20010G16KT 15SM FEW120 BKN200 24/19 A2977 RMK AC1CI6 SLP080 DENSITY ALT 1700FT
CYHM - Hamilton
Updated: 06/04/2020 8:00pm
Mostly cloudy
Mostly cloudy
 Wind from SSW
Wind: SSW 13 km/h
Temperature: 23°C
Dew Point: 17°C
Humidity: 69%
Barometer: 1008.8 hPa
Clouds: Mostly cloudy
Visibility: 24 km
Cloud details: Few Clouds 1524 m
Partly cloudy 4267 m
Mostly cloudy 7620 m
2020/06/05 00:00 CYHM 050000Z 20007KT 15SM FEW050 SCT140 BKN250 23/17 A2979 RMK CU1AC4CI2 CU TR CONTRAILS SLP088 DENSITY ALT 2100FT
 
CYYZ - Toronto
Updated: 06/04/2020 8:00pm
Mostly cloudy
Mostly cloudy
 Wind from WSW
Wind: WSW 19 km/h
Temperature: 27°C
Heat Index: 27°C
Dew Point: 15°C
Humidity: 48%
Barometer: 1007.8 hPa
Clouds: Mostly cloudy
Visibility: 24 km
Cloud details: Few Clouds 2438 m
Mostly cloudy 7620 m
2020/06/05 00:00 CYYZ 050000Z 24010KT 15SM FEW080 BKN250 27/15 A2976 RMK AC1CI7 AC TR SLP076 DENSITY ALT 2300FT
CYKF - Waterloo
Updated: 06/04/2020 8:00pm
Clear
Clear
 Wind from SW
Wind: SW 9 km/h
Temperature: 25°C
Dew Point: 16°C
Humidity: 57%
Barometer: 1008.8 hPa
Clouds: Clear
Visibility: 14 km
2020/06/05 00:00 CYKF 050000Z AUTO 22005KT 180V260 9SM CLR 25/16 A2979 RMK SLP085 DENSITY ALT 2500FT
 
CYXU - London
Updated: 06/04/2020 8:00pm
Overcast
Overcast
 Wind from SSW
Wind: SSW 9 km/h
Temperature: 24°C
Dew Point: 16°C
Humidity: 61%
Barometer: 1009.1 hPa
Clouds: Overcast
Visibility: 24 km
Cloud details: Few Clouds 4572 m
Overcast 7620 m
2020/06/05 00:00 CYXU 050000Z 20005KT 15SM FEW150 OVC250 24/16 A2980 RMK AC1CI7 SLP088 DENSITY ALT 2300FT
CYQG - Windsor
Updated: 06/04/2020 8:00pm
Clear
Clear
 Wind from S
Wind: S 17 km/h
Temperature: 27°C
Heat Index: 28°C
Dew Point: 18°C
Humidity: 58%
Barometer: 1008.5 hPa
Clouds: Clear
Visibility: 14 km
2020/06/05 00:00 CYQG 050000Z AUTO 17009KT 9SM CLR 27/18 A2978 RMK SLP082 DENSITY ALT 2200FT
 
CYZR - Sarnia
Updated: 06/04/2020 8:00pm
Clear
Clear
 Wind from N
Wind: N 17 km/h
Temperature: 17°C
Dew Point: 14°C
Humidity: 83%
Barometer: 1008.5 hPa
Clouds: Clear
Visibility: 14 km
2020/06/05 00:00 CYZR 050000Z AUTO 35009KT 9SM CLR 17/14 A2978 RMK SLP085 DENSITY ALT 1100FT
CYVV - Wiarton
Updated: 06/04/2020 8:00pm
Mostly cloudy
Mostly cloudy
 Wind from WSW
Wind: WSW 4 km/h
Temperature: 19°C
Dew Point: 13°C
Humidity: 68%
Barometer: 1008.8 hPa
Clouds: Mostly cloudy
Visibility: 24 km
Cloud details: Few Clouds 4572 m
Mostly cloudy 7620 m
2020/06/05 00:00 CYVV 050000Z 24002KT 15SM FEW150 BKN250 19/13 A2979 RMK AC1CS5 AC TR SLP089 DENSITY ALT 1600FT
 
CYPQ - Peterborough
Updated: 06/04/2020 8:00pm
Clear
Clear
 Wind from SW
Wind: SW 11 km/h
Temperature: 25°C
Dew Point: 16°C
Humidity: 57%
Barometer: 1007.8 hPa
Clouds: Clear
Visibility: 14 km
2020/06/05 00:00 CYPQ 050000Z AUTO 23006KT 9SM CLR 25/16 A2976 RMK SLP078 DENSITY ALT 2000FT
CYTR - Trenton
Updated: 06/04/2020 8:00pm
Overcast
Overcast
 Wind from SSW
Wind: SSW 7 km/h
Temperature: 21°C
Dew Point: 15°C
Humidity: 69%
Barometer: 1007.8 hPa
Clouds: Overcast
Visibility: 24 km
Cloud details: Few Clouds 1981 m
Overcast 7620 m
2020/06/05 00:00 CYTR 050000Z 21004KT 15SM FEW065 OVC250 21/15 A2976 RMK SC2CI6 SLP078